Latest Coastal Weather Observations for Port Lincoln Airport

IDS60701

Issued at 11:25 pm CDT Monday 20 October 2014 (issued every 10 minutes, with the page automatically refreshed every 10 minutes)

About coastal observations | Map of coastal stations | Coastal observations for SA | Marine services | Other Formats
Station Details ID: 018192 Name: PORT LINCOLN AWS Lat: -34.60 Lon: 135.88 Height: 8.5 m
Data from the previous 72 hours. | See also: Recent months at Port Lincoln Airport
Date/Time
CDT
Temp

°C
Wind Pressure Rain
since 9am
mm
Weather Cloud Vis
km
Sea
Height
m
Swell
Dir
 
Speed
knots
Gust
knots
hPa Trend Height
m
Period
s
Dir
20/11:00pm 15.5 S 5 6 1019.5 - 0.0 - - 10 - - - -
20/10:30pm 14.1 CALM 0 0 1019.7 - 0.0 - - 10 - - - -
20/10:00pm 14.4 S 3 4 1019.9 - 0.0 - - 10 - - - -
20/09:30pm 14.7 SSW 2 4 1019.9 - 0.0 - - 10 - - - -
20/09:00pm 15.6 SSW 4 5 1019.9 - 0.0 - - 10 - - - -
20/08:30pm 16.3 S 4 5 1019.7 - 0.0 - - 10 - - - -
20/08:00pm 16.9 S 5 6 1019.4 - 0.0 - - 10 - - - -
20/07:30pm 18.3 S 5 6 1019.2 - 0.0 - - 10 - - - -
20/07:00pm 19.3 S 6 7 1018.9 - 0.0 - - 10 - - - -
20/06:30pm 19.4 S 7 9 1018.8 - 0.0 - - 10 - - - -
20/06:00pm 20.3 SSE 7 8 1019.0 - 0.0 - - 10 - - - -
20/05:30pm 20.8 S 7 9 1019.1 - 0.0 - - 10 - - - -
20/05:00pm 21.1 SSE 8 9 1019.2 - 0.0 - - 10 - - - -
20/04:30pm 22.9 ESE 9 11 1019.3 - 0.0 - - 10 - - - -
20/04:00pm 22.7 ESE 10 12 1019.6 - 0.0 - - 10 - - - -
20/03:30pm 23.0 E 10 15 1020.0 - 0.0 - - 10 - - - -
20/03:00pm 22.0 E 10 14 1020.5 - 0.0 - - 10 - - - -
20/02:30pm 21.4 E 10 14 1021.0 - 0.0 - - 10 - - - -
20/02:00pm 20.6 E 11 14 1021.3 - 0.0 - - 10 - - - -
20/01:30pm 20.4 E 12 16 1021.6 - 0.0 - - 10 - - - -
20/01:00pm 20.5 E 13 16 1022.1 - 0.0 - - 10 - - - -
20/12:30pm 20.1 E 12 16 1022.5 - 0.0 - - 10 - - - -
20/12:00pm 20.1 E 15 19 1022.9 - 0.0 - - 10 - - - -
20/11:30am 19.2 E 16 19 1023.1 - 0.0 - - 10 - - - -
20/11:00am 18.9 E 14 17 1023.5 - 0.0 - - 10 - - - -
20/10:30am 18.6 E 14 18 1023.7 - 0.0 - - 10 - - - -
20/10:00am 17.6 E 14 17 1023.7 - 0.0 - Partly cloudy 10 - - - -
20/09:30am 18.0 E 15 19 1023.5 - 0.0 - - 10 - - - -
20/09:00am 18.0 E 13 17 1023.4 - 0.0 - Partly cloudy 10 - - - -
20/08:30am 17.0 E 13 17 1023.3 - 0.0 - Partly cloudy 10 - - - -
20/08:00am 15.7 E 11 15 1023.1 - 0.0 - Partly cloudy 10 - - - -
20/07:30am 15.5 E 13 17 1022.9 - 0.0 - Partly cloudy 10 - - - -
20/07:28am 15.4 E 13 17 1022.9 - 0.0 - Partly cloudy 10 - - - -
20/07:15am 15.1 E 13 17 1022.8 - 0.0 - Partly cloudy 10 - - - -
20/07:13am 15.1 E 13 16 1022.8 - 0.0 - Partly cloudy 10 - - - -
20/07:02am 15.0 E 13 16 1022.8 - 0.0 - Partly cloudy 10 - - - -
20/07:00am 15.0 E 13 17 1022.8 - 0.0 - Partly cloudy 10 - - - -
20/06:30am 15.0 E 13 17 1022.6 - 0.0 - Partly cloudy 10 - - - -
20/06:00am 15.0 E 13 17 1022.7 - 0.0 - Mostly cloudy 10 - - - -
20/05:58am 15.0 E 13 16 1022.7 - 0.0 - Partly cloudy 10 - - - -
20/05:30am 15.1 E 13 17 1022.6 - 0.0 - Partly cloudy 10 - - - -
20/05:00am 15.0 E 13 17 1022.5 - 0.0 - Partly cloudy 10 - - - -
20/04:30am 15.1 E 12 16 1022.5 - 0.0 - Partly cloudy 10 - - - -
20/04:00am 15.3 E 14 17 1022.5 - 0.0 - Partly cloudy 10 - - - -
20/03:30am 15.5 E 16 19 1022.7 - 0.0 - Cloudy 10 - - - -
20/03:00am 15.3 E 15 18 1022.8 - 0.0 - Mostly cloudy 10 - - - -
20/02:30am 15.2 E 12 16 1022.7 - 0.0 - Cloudy 10 - - - -
20/02:00am 15.1 E 12 16 1022.9 - 0.0 - Partly cloudy 10 - - - -
20/01:30am 15.3 E 14 19 1023.1 - 0.0 - Partly cloudy 10 - - - -
20/01:00am 15.5 E 14 17 1023.2 - 0.0 - Cloudy 10 - - - -
20/12:30am 15.5 E 13 16 1023.2 - 0.0 - Partly cloudy 10 - - - -
20/12:00am 15.4 E 13 17 1023.5 - 0.0 - Partly cloudy 10 - - - -
 
Date/Time
CDT
Temp

°C
Wind Pressure Rain
since 9am
mm
Weather Cloud Vis
km
Sea
Height
m
Swell
Dir
 
Speed
knots
Gust
knots
hPa Trend Height
m
Period
s
Dir
19/11:36pm 15.5 E 13 16 1023.5 - 0.0 - Partly cloudy 10 - - - -
19/11:30pm 15.5 E 13 17 1023.5 - 0.0 - Partly cloudy 10 - - - -
19/11:13pm 15.5 ESE 11 16 1023.6 - 0.0 - Partly cloudy 10 - - - -
19/11:00pm 15.6 ESE 13 19 1023.7 - 0.0 - Partly cloudy 10 - - - -
19/10:30pm 15.9 E 15 18 1023.5 - 0.0 - - 10 - - - -
19/10:00pm 15.8 ESE 14 18 1023.6 - 0.0 - - 10 - - - -
19/09:30pm 16.0 E 14 18 1023.5 - 0.0 - - 10 - - - -
19/09:00pm 16.2 E 13 17 1023.2 - 0.0 - - 10 - - - -
19/08:30pm 16.1 ESE 11 16 1023.1 - 0.0 - - 10 - - - -
19/08:00pm 16.3 ESE 9 13 1023.0 - 0.0 - - 10 - - - -
19/07:30pm 16.7 ESE 12 17 1022.5 - 0.0 - - 10 - - - -
19/07:00pm 17.5 SE 13 17 1022.1 - 0.0 - - 10 - - - -
19/06:30pm 18.2 SE 15 21 1021.9 - 0.0 - - 10 - - - -
19/06:00pm 19.1 SSE 15 19 1021.5 - 0.0 - - 10 - - - -
19/05:30pm 20.6 SSE 12 16 1021.0 - 0.0 - - 10 - - - -
19/05:00pm 20.5 SSE 14 17 1020.7 - 0.0 - - 10 - - - -
19/04:30pm 20.7 SSE 14 19 1020.5 - 0.0 - - 10 - - - -
19/04:00pm 21.5 S 15 19 1020.3 - 0.0 - - 10 - - - -
19/03:30pm 22.5 S 17 21 1020.0 - 0.0 - - 10 - - - -
19/03:00pm 23.8 S 18 21 1020.0 - 0.0 - - 10 - - - -
19/02:30pm 23.8 SSE 13 15 1020.0 - 0.0 - - 10 - - - -
19/02:00pm 23.9 SE 12 15 1020.0 - 0.0 - - 10 - - - -
19/01:30pm 23.1 SSE 13 16 1020.0 - 0.0 - - 10 - - - -
19/01:00pm 24.3 SSE 13 18 1020.1 - 0.0 - - 10 - - - -
19/12:30pm 23.9 S 18 22 1020.1 - 0.0 - - 10 - - - -
19/12:09pm 23.7 S 14 21 1020.0 - 0.0 - - 10 - - - -
19/12:00pm 29.4 W 8 12 1020.0 - 0.0 - - 10 - - - -
19/11:30am 29.2 WNW 9 11 1020.1 - 0.0 - - 10 - - - -
19/11:00am 27.8 W 13 16 1020.3 - 0.0 - - 10 - - - -
19/10:30am 27.0 WSW 10 15 1020.3 - 0.0 - - 10 - - - -
19/10:00am 27.9 WSW 11 15 1020.1 - 0.0 - - 10 - - - -
19/09:30am 27.8 WNW 11 15 1019.4 - 0.0 - - 10 - - - -
19/09:00am 28.0 WNW 8 13 1018.9 - 0.0 - - 10 - - - -
19/08:30am 27.0 NNW 9 13 1018.2 - 0.0 - - 10 - - - -
19/08:00am 25.6 NNW 9 14 1017.9 - 0.0 - - 10 - - - -
19/07:30am 21.6 NW 1 4 1019.4 - 0.0 - - 10 - - - -
19/07:00am 16.7 NNE 1 4 1016.9 - 0.0 - - 10 - - - -
19/06:30am 18.7 NE 4 7 1016.5 - 0.0 - - 10 - - - -
19/06:00am 14.8 NNW 2 7 1016.2 - 0.0 - - 10 - - - -
19/05:30am 11.6 NW 1 6 1016.1 - 0.0 - - 10 - - - -
19/05:00am 12.4 W 4 6 1016.1 - 0.0 - - 10 - - - -
19/04:30am 13.4 NNW 5 7 1016.0 - 0.0 - - 10 - - - -
19/04:00am 12.8 WNW 3 4 1016.2 - 0.0 - - 10 - - - -
19/03:30am 13.3 NW 5 6 1016.3 - 0.0 - - 10 - - - -
19/03:00am 13.3 NW 4 6 1016.7 - 0.0 - Cloudy 10 - - - -
19/02:30am 13.3 NW 6 7 1017.2 - 0.0 - - 10 - - - -
19/02:00am 13.3 WNW 6 8 1017.5 - 0.0 - - 10 - - - -
19/01:30am 12.3 WNW 4 5 1017.8 - 0.0 - - 10 - - - -
19/01:00am 12.9 WNW 4 8 1017.8 - 0.0 - - 10 - - - -
19/12:30am 12.4 NW 4 5 1017.9 - 0.0 - - 10 - - - -
19/12:00am 12.9 NNW 5 6 1018.0 - 0.0 - - 10 - - - -
 
Date/Time
CDT
Temp

°C
Wind Pressure Rain
since 9am
mm
Weather Cloud Vis
km
Sea
Height
m
Swell
Dir
 
Speed
knots
Gust
knots
hPa Trend Height
m
Period
s
Dir
18/11:30pm 12.8 WNW 5 6 1018.2 - 0.0 - - 10 - - - -
18/11:00pm 12.3 NNW 5 6 1018.6 - 0.0 - - 10 - - - -
18/10:30pm 12.3 NW 5 6 1018.8 - 0.0 - - 10 - - - -
18/10:00pm 13.0 NNW 4 4 1019.1 - 0.0 - - 10 - - - -
18/09:30pm 13.7 N 4 5 1019.2 - 0.0 - - 10 - - - -
18/09:00pm 15.7 CALM 0 0 1019.4 - 0.0 - Partly cloudy 10 - - - -
18/08:30pm 16.7 E 3 5 1019.1 - 0.0 - - 10 - - - -
18/08:00pm 18.0 S 5 6 1018.8 - 0.0 - - 10 - - - -
18/07:30pm 19.6 SSW 6 8 1017.9 - 0.0 - - 10 - - - -
18/07:00pm 23.8 E 8 11 1017.3 - 0.0 - - 10 - - - -
18/06:30pm 28.1 W 5 8 1016.9 - 0.0 - - 10 - - - -
18/06:00pm 29.4 W 12 15 1016.6 - 0.0 - - 10 - - - -
18/05:30pm 31.4 W 13 18 1016.4 - 0.0 - - 10 - - - -
18/05:00pm 31.3 W 13 19 1016.5 - 0.0 - - 10 - - - -
18/04:30pm 31.4 W 14 17 1016.6 - 0.0 - - 10 - - - -
18/04:00pm 29.5 WSW 13 17 1016.6 - 0.0 - - 10 - - - -
18/03:30pm 31.0 W 15 22 1016.8 - 0.0 - - 10 - - - -
18/03:06pm 31.0 WNW 19 29 1017.1 - 0.0 - - 10 - - - -
18/03:00pm 31.4 WNW 20 27 1017.2 - 0.0 - Partly cloudy 10 - - - -
18/02:30pm 31.6 WNW 21 31 1017.3 - 0.0 - - 10 - - - -
18/02:28pm 31.6 WNW 21 31 1017.3 - 0.0 - - 10 - - - -
18/02:00pm 33.0 NW 21 29 1017.5 - 0.0 - - 10 - - - -
18/01:53pm 33.3 NW 20 30 1017.5 - 0.0 - - 10 - - - -
18/01:30pm 34.3 NW 22 29 1017.5 - 0.0 - - 10 - - - -
18/01:20pm 33.4 NW 18 29 1017.6 - 0.0 - - 10 - - - -
18/01:00pm 33.7 NNW 17 25 1017.8 - 0.0 - - 10 - - - -
18/12:30pm 32.3 NNW 19 26 1018.1 - 0.0 - - 10 - - - -
18/12:00pm 30.5 NNW 22 29 1018.1 - 0.0 - Partly cloudy 10 - - - -
18/11:30am 29.4 NNW 20 31 1018.3 - 0.0 - - 10 - - - -
18/11:03am 28.1 NNW 21 32 1018.0 - 0.0 - - 10 - - - -
18/11:00am 28.1 NNW 22 31 1018.0 - 0.0 - - 10 - - - -
18/10:30am 27.9 NNW 22 32 1017.5 - 0.0 - - 10 - - - -
18/10:16am 27.6 NNW 25 37 1017.4 - 0.0 - - 10 - - - -
18/10:00am 26.6 NNW 23 32 1017.3 - 0.0 - - 10 - - - -
18/09:50am 26.0 NNW 24 34 1017.4 - 0.0 - - 10 - - - -
18/09:30am 25.5 NNW 23 32 1017.3 - 0.0 - - 10 - - - -
18/09:19am 25.3 NNW 20 31 1017.5 - 0.0 - - 10 - - - -
18/09:00am 24.8 NNW 19 26 1017.5 - 0.0 - Mostly cloudy 10 - - - -
18/08:30am 25.2 NNW 17 24 1017.9 - 0.0 - - 10 - - - -
18/08:00am 23.1 NNW 15 21 1018.2 - 0.0 - - 10 - - - -
18/07:30am 22.7 NNW 12 18 1018.0 - 0.0 - - 10 - - - -
18/07:00am 22.7 N 5 9 1017.7 - 0.0 - - 10 - - - -
18/06:30am 22.5 NNE 6 12 1017.3 - 0.0 - - 10 - - - -
18/06:00am 21.1 ENE 5 9 1017.1 - 0.0 - Mostly cloudy 10 - - - -
18/05:30am 17.2 ENE 8 10 1016.8 - 0.0 - - 10 - - - -
18/05:00am 13.7 NE 5 7 1016.9 - 0.0 - - 10 - - - -
18/04:30am 9.5 N 1 5 1017.0 - 0.0 - - 10 - - - -
18/04:00am 10.1 W 2 6 1017.2 - 0.0 - - 10 - - - -
18/03:30am 10.1 SSW 4 5 1017.3 - 0.0 - - 10 - - - -
18/03:00am 10.6 CALM 0 0 1017.6 - 0.0 - Mostly clear 10 - - - -
18/02:30am 14.4 SE 5 6 1017.8 - 0.0 - - 10 - - - -
18/02:00am 13.0 SSW 5 6 1017.8 - 0.0 - - 10 - - - -
18/01:30am 13.2 S 3 7 1017.8 - 0.0 - - 10 - - - -
18/01:00am 11.0 SSE 1 4 1018.2 - 0.0 - - 10 - - - -
18/12:30am 12.1 ESE 1 4 1018.6 - 0.0 - - 10 - - - -
18/12:00am 11.7 SW 4 6 1018.9 - 0.0 - Mostly cloudy 10 - - - -
 
Date/Time
CDT
Temp

°C
Wind Pressure Rain
since 9am
mm
Weather Cloud Vis
km
Sea
Height
m
Swell
Dir
 
Speed
knots
Gust
knots
hPa Trend Height
m
Period
s
Dir
17/11:30pm 12.3 SSW 4 5 1018.9 - 0.0 - - 10 - - - -

Other Formats:

Comma delimited format used in spreadsheet applications
http://www.bom.gov.au/fwo/IDS60701/IDS60701.95661.axf

JavaScript Object Notation format (JSON) in row-major order
http://www.bom.gov.au/fwo/IDS60701/IDS60701.95661.json